Time;durP1;ratioP1;P1;durP2;ratioP2;P2;SDS_P1;SDS_P2;PMS_P1;PMS_P2;Temp;Humidity;BMP_temperature;BMP_pressure;BME280_temperature;BME280_humidity;BME280_pressure;Samples;Min_cycle;Max_cycle;Signal;HPM_P1;HPM_P2
2024/01/16 00:02:18;;;;;;;42.33;18.75;;;;;;;;;;4987273;28;20268;-65
2024/01/16 00:04:43;;;;;;;38.40;17.83;;;;;;;;;;4984756;28;20034;-66
2024/01/16 00:07:09;;;;;;;39.42;17.65;;;;;;;;;;4987022;28;20026;-65
2024/01/16 00:09:34;;;;;;;37.25;17.75;;;;;;;;;;4985290;28;20141;-66
2024/01/16 00:12:00;;;;;;;38.78;18.58;;;;;;;;;;4986894;28;20496;-65
2024/01/16 00:14:25;;;;;;;38.90;18.33;;;;;;;;;;4985958;28;20480;-65
2024/01/16 00:16:51;;;;;;;43.45;18.70;;;;;;;;;;4967619;28;20026;-65
2024/01/16 00:19:16;;;;;;;42.55;19.92;;;;;;;;;;4987735;28;20030;-66
2024/01/16 00:21:42;;;;;;;42.87;18.50;;;;;;;;;;4985575;28;20026;-64
2024/01/16 00:24:07;;;;;;;40.92;18.83;;;;;;;;;;4986954;28;20284;-65
2024/01/16 00:26:33;;;;;;;39.80;18.45;;;;;;;;;;4968938;28;20062;-66
2024/01/16 00:28:58;;;;;;;38.78;17.67;;;;;;;;;;4988867;28;20030;-66
2024/01/16 00:31:24;;;;;;;37.20;16.35;;;;;;;;;;4969901;28;20108;-66
2024/01/16 00:33:49;;;;;;;40.10;17.50;;;;;;;;;;4985359;28;20027;-66
2024/01/16 00:36:14;;;;;;;54.10;20.57;;;;;;;;;;4986609;28;20089;-66
2024/01/16 00:38:40;;;;;;;42.50;19.98;;;;;;;;;;4985019;28;20268;-64
2024/01/16 00:41:06;;;;;;;40.42;17.85;;;;;;;;;;4986405;28;20022;-66
2024/01/16 00:43:32;;;;;;;103.35;23.58;;;;;;;;;;4985659;28;20041;-65
2024/01/16 00:45:57;;;;;;;37.70;17.27;;;;;;;;;;4986441;28;20023;-64
2024/01/16 00:48:22;;;;;;;47.13;19.00;;;;;;;;;;4984260;28;20019;-64
2024/01/16 00:50:49;;;;;;;49.08;19.27;;;;;;;;;;4985449;28;20282;-65
2024/01/16 00:53:16;;;;;;;38.83;18.00;;;;;;;;;;4983925;28;20022;-67
2024/01/16 00:55:41;;;;;;;38.13;18.30;;;;;;;;;;4987373;28;20030;-66
2024/01/16 00:58:06;;;;;;;40.30;17.97;;;;;;;;;;4984452;28;20465;-66
2024/01/16 01:00:33;;;;;;;39.13;17.47;;;;;;;;;;4986960;28;20272;-67
2024/01/16 01:02:59;;;;;;;37.42;16.40;;;;;;;;;;4983252;28;20282;-66
2024/01/16 01:05:28;;;;;;;37.08;17.13;;;;;;;;;;4985950;28;20030;-66
2024/01/16 01:07:53;;;;;;;33.13;15.30;;;;;;;;;;4982504;28;20045;-66
2024/01/16 01:10:18;;;;;;;33.65;15.23;;;;;;;;;;4986512;28;20030;-66
2024/01/16 01:12:44;;;;;;;48.75;15.75;;;;;;;;;;4985085;28;20061;-66
2024/01/16 01:15:10;;;;;;;36.67;15.88;;;;;;;;;;4986920;28;20060;-66
2024/01/16 01:17:35;;;;;;;40.17;14.35;;;;;;;;;;4986073;28;20500;-65
2024/01/16 01:20:01;;;;;;;24.80;12.10;;;;;;;;;;4986027;28;20034;-65
2024/01/16 01:22:26;;;;;;;26.02;12.32;;;;;;;;;;4967151;28;20022;-66
2024/01/16 01:24:51;;;;;;;23.92;11.90;;;;;;;;;;4968156;28;20032;-65
2024/01/16 01:27:17;;;;;;;25.77;11.13;;;;;;;;;;4985971;28;20076;-66
2024/01/16 01:29:42;;;;;;;25.45;11.38;;;;;;;;;;4968615;28;20108;-66
2024/01/16 01:32:07;;;;;;;29.20;11.18;;;;;;;;;;4985383;28;20026;-66
2024/01/16 01:34:33;;;;;;;22.73;9.87;;;;;;;;;;4987265;28;20115;-66
2024/01/16 01:36:58;;;;;;;24.58;11.52;;;;;;;;;;4986914;28;20630;-66
2024/01/16 01:39:23;;;;;;;21.33;10.48;;;;;;;;;;4969744;28;20072;-66
2024/01/16 01:41:49;;;;;;;25.88;11.68;;;;;;;;;;4985950;28;20462;-66
2024/01/16 01:44:15;;;;;;;26.08;12.50;;;;;;;;;;4985836;28;20096;-66
2024/01/16 01:46:41;;;;;;;26.90;11.18;;;;;;;;;;4987175;28;20036;-66
2024/01/16 01:49:07;;;;;;;25.98;10.48;;;;;;;;;;4988955;28;20388;-66
2024/01/16 01:51:33;;;;;;;22.73;10.68;;;;;;;;;;4988862;28;20031;-66
2024/01/16 01:53:59;;;;;;;22.23;10.10;;;;;;;;;;4989568;28;20097;-65
2024/01/16 01:56:24;;;;;;;20.83;9.88;;;;;;;;;;4973419;28;20561;-66
2024/01/16 01:58:52;;;;;;;22.63;9.05;;;;;;;;;;4988873;28;20488;-66
2024/01/16 02:01:19;;;;;;;22.02;10.40;;;;;;;;;;4988720;28;20041;-66
2024/01/16 02:03:45;;;;;;;22.75;9.90;;;;;;;;;;4988281;28;20026;-66
2024/01/16 02:06:11;;;;;;;25.95;11.05;;;;;;;;;;4990651;28;20041;-64
2024/01/16 02:08:36;;;;;;;20.55;9.70;;;;;;;;;;4987564;28;20416;-66
2024/01/16 02:11:02;;;;;;;20.60;9.15;;;;;;;;;;4990188;28;20030;-66
2024/01/16 02:13:27;;;;;;;21.40;9.70;;;;;;;;;;4970538;28;20042;-67
2024/01/16 02:15:53;;;;;;;19.77;8.65;;;;;;;;;;4986929;28;20038;-66
2024/01/16 02:18:18;;;;;;;19.63;8.63;;;;;;;;;;4988651;28;20026;-66
2024/01/16 02:20:45;;;;;;;18.30;9.43;;;;;;;;;;4988247;28;20766;-66
2024/01/16 02:23:12;;;;;;;19.52;9.40;;;;;;;;;;4989516;28;20034;-66
2024/01/16 02:25:37;;;;;;;21.52;9.85;;;;;;;;;;4983997;28;20030;-66
2024/01/16 02:28:03;;;;;;;17.30;8.55;;;;;;;;;;4987954;28;20398;-67
2024/01/16 02:30:28;;;;;;;19.73;9.00;;;;;;;;;;4988592;28;20038;-66
2024/01/16 02:32:53;;;;;;;20.77;9.23;;;;;;;;;;4987903;28;20026;-66
2024/01/16 02:35:19;;;;;;;21.33;10.15;;;;;;;;;;4988951;28;20034;-66
2024/01/16 02:37:44;;;;;;;22.98;9.07;;;;;;;;;;4987298;28;20033;-66
2024/01/16 02:40:10;;;;;;;24.85;12.00;;;;;;;;;;4989707;28;20034;-66
2024/01/16 02:42:37;;;;;;;26.85;11.40;;;;;;;;;;4989163;28;20587;-66
2024/01/16 02:45:03;;;;;;;26.40;11.15;;;;;;;;;;4970084;28;20033;-66
2024/01/16 02:47:29;;;;;;;26.23;11.48;;;;;;;;;;4968794;28;20050;-66
2024/01/16 02:49:54;;;;;;;27.83;11.48;;;;;;;;;;4985021;28;20046;-65
2024/01/16 02:52:19;;;;;;;24.67;11.27;;;;;;;;;;4988273;28;20022;-66
2024/01/16 02:54:45;;;;;;;26.27;11.80;;;;;;;;;;4968443;28;20418;-65
2024/01/16 02:57:10;;;;;;;27.02;11.90;;;;;;;;;;4986137;28;20041;-66
2024/01/16 02:59:36;;;;;;;26.70;11.60;;;;;;;;;;4987927;28;20030;-66
2024/01/16 03:02:02;;;;;;;24.77;11.18;;;;;;;;;;4986160;28;20022;-66
2024/01/16 03:04:27;;;;;;;31.20;11.10;;;;;;;;;;4989442;28;20855;-65
2024/01/16 03:06:52;;;;;;;24.20;11.57;;;;;;;;;;4983718;28;20030;-66
2024/01/16 03:09:18;;;;;;;23.70;10.97;;;;;;;;;;4987554;28;20284;-64
2024/01/16 03:11:43;;;;;;;28.70;12.43;;;;;;;;;;4974217;28;20611;-66
2024/01/16 03:14:08;;;;;;;25.42;11.50;;;;;;;;;;4972108;28;20473;-66
2024/01/16 03:16:34;;;;;;;23.17;10.68;;;;;;;;;;4970622;28;20619;-69
2024/01/16 03:18:59;;;;;;;24.10;11.37;;;;;;;;;;4987791;28;20026;-69
2024/01/16 03:21:24;;;;;;;24.60;11.57;;;;;;;;;;4987789;28;20446;-70
2024/01/16 03:23:50;;;;;;;23.67;11.00;;;;;;;;;;4984766;28;20034;-69
2024/01/16 03:26:15;;;;;;;25.00;10.98;;;;;;;;;;4986198;28;20287;-69
2024/01/16 03:28:40;;;;;;;26.80;11.40;;;;;;;;;;4966153;28;20119;-69
2024/01/16 03:31:06;;;;;;;28.58;12.32;;;;;;;;;;4985330;28;20050;-69
2024/01/16 03:33:34;;;;;;;27.45;11.95;;;;;;;;;;4987760;28;20074;-69
2024/01/16 03:35:59;;;;;;;26.42;11.55;;;;;;;;;;4985770;28;20034;-70
2024/01/16 03:38:25;;;;;;;29.15;13.02;;;;;;;;;;4985897;28;20529;-69
2024/01/16 03:40:51;;;;;;;28.17;12.43;;;;;;;;;;4984810;28;20026;-69
2024/01/16 03:43:16;;;;;;;26.73;11.63;;;;;;;;;;4986243;28;20371;-69
2024/01/16 03:45:42;;;;;;;25.25;11.43;;;;;;;;;;4985299;28;20113;-69
2024/01/16 03:48:07;;;;;;;24.92;11.18;;;;;;;;;;4987704;28;20038;-69
2024/01/16 03:50:33;;;;;;;26.08;10.70;;;;;;;;;;4983984;28;20034;-70
2024/01/16 03:52:59;;;;;;;24.00;10.77;;;;;;;;;;4987976;28;20031;-69
2024/01/16 03:55:24;;;;;;;24.00;11.40;;;;;;;;;;4984989;28;20027;-69
2024/01/16 03:57:50;;;;;;;27.27;11.40;;;;;;;;;;4983633;28;20086;-69
2024/01/16 04:00:16;;;;;;;25.73;11.18;;;;;;;;;;4967363;28;20038;-69
2024/01/16 04:02:41;;;;;;;25.92;11.02;;;;;;;;;;4987714;28;20026;-69
2024/01/16 04:05:07;;;;;;;25.70;11.53;;;;;;;;;;4986835;28;20081;-69
2024/01/16 04:07:32;;;;;;;22.50;10.07;;;;;;;;;;4969820;28;20848;-69
2024/01/16 04:09:57;;;;;;;25.27;11.70;;;;;;;;;;4983648;28;20101;-68
2024/01/16 04:12:22;;;;;;;25.53;10.97;;;;;;;;;;4987793;28;20030;-69
2024/01/16 04:14:48;;;;;;;23.27;10.13;;;;;;;;;;4985980;28;20272;-69
2024/01/16 04:17:13;;;;;;;26.90;10.88;;;;;;;;;;4987379;28;20049;-69
2024/01/16 04:19:39;;;;;;;27.17;12.27;;;;;;;;;;4984122;28;20042;-69
2024/01/16 04:22:05;;;;;;;26.45;12.15;;;;;;;;;;4985736;28;20737;-69
2024/01/16 04:24:30;;;;;;;27.98;11.80;;;;;;;;;;4984222;28;20030;-69
2024/01/16 04:26:55;;;;;;;33.55;14.55;;;;;;;;;;4987254;28;20057;-70
2024/01/16 04:29:21;;;;;;;26.02;12.55;;;;;;;;;;4985442;28;20054;-69
2024/01/16 04:31:46;;;;;;;28.67;12.68;;;;;;;;;;4986252;28;20034;-67
2024/01/16 04:34:11;;;;;;;27.42;12.07;;;;;;;;;;4985664;28;20041;-69
2024/01/16 04:36:36;;;;;;;24.98;11.82;;;;;;;;;;4986514;28;20513;-68
2024/01/16 04:39:03;;;;;;;26.73;12.05;;;;;;;;;;4985859;28;20019;-69
2024/01/16 04:41:28;;;;;;;29.83;12.68;;;;;;;;;;4986534;28;20034;-69
2024/01/16 04:43:54;;;;;;;29.42;12.68;;;;;;;;;;4968829;28;20256;-68
2024/01/16 04:46:20;;;;;;;31.90;13.05;;;;;;;;;;4969195;28;20026;-68
2024/01/16 04:48:45;;;;;;;32.00;14.05;;;;;;;;;;4983508;28;20030;-69
2024/01/16 04:51:10;;;;;;;31.88;13.77;;;;;;;;;;4987062;28;20038;-70
2024/01/16 04:53:36;;;;;;;27.17;12.85;;;;;;;;;;4985820;28;20098;-70
2024/01/16 04:56:02;;;;;;;30.40;13.15;;;;;;;;;;4969905;28;20056;-70
2024/01/16 04:58:27;;;;;;;30.50;12.32;;;;;;;;;;4984319;28;20081;-69
2024/01/16 05:00:52;;;;;;;33.67;14.00;;;;;;;;;;4986932;28;20074;-70
2024/01/16 05:03:18;;;;;;;35.20;15.45;;;;;;;;;;4985551;28;20480;-70
2024/01/16 05:05:43;;;;;;;34.90;13.50;;;;;;;;;;4984781;28;20491;-70
2024/01/16 05:08:09;;;;;;;31.80;14.02;;;;;;;;;;4985101;28;20027;-67
2024/01/16 05:10:34;;;;;;;31.73;14.23;;;;;;;;;;4987259;28;20026;-68
2024/01/16 05:12:59;;;;;;;30.08;13.52;;;;;;;;;;4984063;28;20027;-67
2024/01/16 05:15:25;;;;;;;31.75;14.30;;;;;;;;;;4987236;28;20022;-66
2024/01/16 05:17:50;;;;;;;33.08;14.38;;;;;;;;;;4985799;28;20015;-66
2024/01/16 05:20:15;;;;;;;30.00;14.20;;;;;;;;;;4964907;28;20061;-66
2024/01/16 05:22:40;;;;;;;30.05;13.27;;;;;;;;;;4986208;28;20279;-67
2024/01/16 05:25:09;;;;;;;28.53;13.50;;;;;;;;;;4989099;28;20496;-67
2024/01/16 05:27:34;;;;;;;29.33;13.63;;;;;;;;;;4986997;28;20345;-67
2024/01/16 05:30:00;;;;;;;26.20;12.63;;;;;;;;;;4990573;28;20036;-65
2024/01/16 05:32:26;;;;;;;28.35;12.35;;;;;;;;;;4989306;28;20282;-68
2024/01/16 05:34:51;;;;;;;27.60;12.13;;;;;;;;;;4989696;28;20625;-66
2024/01/16 05:37:17;;;;;;;31.80;12.40;;;;;;;;;;4989160;28;20035;-66
2024/01/16 05:39:42;;;;;;;29.90;12.82;;;;;;;;;;4987188;28;20037;-67
2024/01/16 05:42:07;;;;;;;29.48;13.05;;;;;;;;;;4984685;28;20059;-66
2024/01/16 05:44:33;;;;;;;30.77;13.27;;;;;;;;;;4967193;28;20515;-66
2024/01/16 05:46:58;;;;;;;30.05;12.88;;;;;;;;;;4986257;28;20049;-67
2024/01/16 05:49:23;;;;;;;1459.70;305.73;;;;;;;;;;4986804;28;20029;-68
2024/01/16 05:51:49;;;;;;;40.38;16.70;;;;;;;;;;4970700;28;20034;-66
2024/01/16 05:54:14;;;;;;;36.97;15.93;;;;;;;;;;4987106;28;20030;-66
2024/01/16 05:56:39;;;;;;;39.47;16.07;;;;;;;;;;4988001;28;20067;-66
2024/01/16 05:59:04;;;;;;;38.40;15.00;;;;;;;;;;4986885;28;20268;-66
2024/01/16 06:01:30;;;;;;;34.08;14.32;;;;;;;;;;4988190;28;20026;-67
2024/01/16 06:03:55;;;;;;;35.08;14.35;;;;;;;;;;4988598;28;20033;-66
2024/01/16 06:06:20;;;;;;;31.90;13.90;;;;;;;;;;4989580;28;20094;-66
2024/01/16 06:08:46;;;;;;;32.38;13.55;;;;;;;;;;4988383;28;20330;-66
2024/01/16 06:11:12;;;;;;;32.97;13.95;;;;;;;;;;4968945;28;20038;-66
2024/01/16 06:13:37;;;;;;;38.83;15.85;;;;;;;;;;4987178;28;20072;-66
2024/01/16 06:16:03;;;;;;;33.10;14.40;;;;;;;;;;4969962;28;20034;-66
2024/01/16 06:18:28;;;;;;;37.97;14.77;;;;;;;;;;4986457;28;20272;-66
2024/01/16 06:20:53;;;;;;;36.85;14.35;;;;;;;;;;4986452;28;20042;-66
2024/01/16 06:23:19;;;;;;;42.83;15.33;;;;;;;;;;4988126;28;20026;-67
2024/01/16 06:25:44;;;;;;;44.92;15.90;;;;;;;;;;4988602;28;20638;-66
2024/01/16 06:28:09;;;;;;;36.92;14.65;;;;;;;;;;4988343;28;20532;-66
2024/01/16 06:30:35;;;;;;;34.25;15.27;;;;;;;;;;4986334;28;20030;-66
2024/01/16 06:33:00;;;;;;;40.08;16.35;;;;;;;;;;4986470;28;20037;-67
2024/01/16 06:35:25;;;;;;;34.53;15.30;;;;;;;;;;4988469;28;20039;-67
2024/01/16 06:37:51;;;;;;;43.17;17.10;;;;;;;;;;4985998;28;20469;-66
2024/01/16 06:40:16;;;;;;;48.17;18.40;;;;;;;;;;4985571;28;20030;-64
2024/01/16 06:42:42;;;;;;;45.25;15.82;;;;;;;;;;4967816;28;20546;-65
2024/01/16 06:45:07;;;;;;;62.17;21.10;;;;;;;;;;4990385;28;20485;-65
2024/01/16 06:47:32;;;;;;;35.13;14.63;;;;;;;;;;4986428;28;20031;-65
2024/01/16 06:49:58;;;;;;;28.05;13.30;;;;;;;;;;4987553;28;20056;-66
2024/01/16 06:52:24;;;;;;;28.05;13.55;;;;;;;;;;4985270;28;20038;-66
2024/01/16 06:54:49;;;;;;;29.90;13.82;;;;;;;;;;4987325;28;20034;-66
2024/01/16 06:57:15;;;;;;;29.30;13.57;;;;;;;;;;4982284;28;20022;-66
2024/01/16 06:59:40;;;;;;;32.38;14.65;;;;;;;;;;4986094;28;20060;-66
2024/01/16 07:02:06;;;;;;;32.63;14.53;;;;;;;;;;4983867;28;20366;-65
2024/01/16 07:04:31;;;;;;;37.47;16.88;;;;;;;;;;4983294;28;20272;-65
2024/01/16 07:06:56;;;;;;;35.38;15.13;;;;;;;;;;4982557;28;20034;-65
2024/01/16 07:09:23;;;;;;;28.40;12.88;;;;;;;;;;4984558;28;20500;-65
2024/01/16 07:11:48;;;;;;;31.73;13.82;;;;;;;;;;4984258;28;20030;-65
2024/01/16 07:14:13;;;;;;;34.17;14.70;;;;;;;;;;4987002;28;20057;-65
2024/01/16 07:16:39;;;;;;;29.15;13.75;;;;;;;;;;4985574;28;20026;-65
2024/01/16 07:19:04;;;;;;;35.83;15.60;;;;;;;;;;4985681;28;20058;-65
2024/01/16 07:21:29;;;;;;;29.27;13.45;;;;;;;;;;4987161;28;20026;-65
2024/01/16 07:23:55;;;;;;;34.58;15.32;;;;;;;;;;4985149;28;20030;-65
2024/01/16 07:26:20;;;;;;;30.42;14.82;;;;;;;;;;4984544;28;20042;-66
2024/01/16 07:28:47;;;;;;;30.75;13.93;;;;;;;;;;4986600;28;20030;-66
2024/01/16 07:31:13;;;;;;;33.55;15.38;;;;;;;;;;4983221;28;20037;-65
2024/01/16 07:33:38;;;;;;;31.98;14.93;;;;;;;;;;4987362;28;20030;-65
2024/01/16 07:36:03;;;;;;;31.83;14.73;;;;;;;;;;4983467;28;20038;-66
2024/01/16 07:38:29;;;;;;;30.35;15.18;;;;;;;;;;4983996;28;20041;-65
2024/01/16 07:40:56;;;;;;;31.27;14.85;;;;;;;;;;4984268;28;20075;-66
2024/01/16 07:43:21;;;;;;;32.08;14.27;;;;;;;;;;4986718;28;20190;-65
2024/01/16 07:45:46;;;;;;;32.65;14.68;;;;;;;;;;4984897;28;20579;-66
2024/01/16 07:48:12;;;;;;;28.23;14.07;;;;;;;;;;4985971;28;20077;-64
2024/01/16 07:50:37;;;;;;;29.87;13.33;;;;;;;;;;4986539;28;20276;-65
2024/01/16 07:53:02;;;;;;;26.00;12.10;;;;;;;;;;4969092;28;20276;-64
2024/01/16 07:55:27;;;;;;;29.15;13.65;;;;;;;;;;4983768;28;20077;-65
2024/01/16 07:57:53;;;;;;;26.92;12.98;;;;;;;;;;4982618;28;20481;-65
2024/01/16 08:00:19;;;;;;;29.02;13.95;;;;;;;;;;4984064;28;20507;-65
2024/01/16 08:02:44;;;;;;;29.75;13.15;;;;;;;;;;4983778;28;20034;-66
2024/01/16 08:05:10;;;;;;;29.42;13.68;;;;;;;;;;4982452;28;20049;-65
2024/01/16 08:07:35;;;;;;;24.77;11.95;;;;;;;;;;4987350;28;20030;-66
2024/01/16 08:10:00;;;;;;;29.90;13.43;;;;;;;;;;4984856;28;20480;-66
2024/01/16 08:12:26;;;;;;;24.08;11.30;;;;;;;;;;4984720;28;20037;-65
2024/01/16 08:14:52;;;;;;;24.63;10.48;;;;;;;;;;4964426;28;20046;-65
2024/01/16 08:17:17;;;;;;;22.88;10.77;;;;;;;;;;4986238;28;20154;-66
2024/01/16 08:19:43;;;;;;;20.95;10.63;;;;;;;;;;4987594;28;20104;-66
2024/01/16 08:22:08;;;;;;;23.17;11.07;;;;;;;;;;4983567;28;20477;-64
2024/01/16 08:24:33;;;;;;;18.98;9.45;;;;;;;;;;4986159;28;20127;-66
2024/01/16 08:26:59;;;;;;;17.58;9.45;;;;;;;;;;4983778;28;20611;-65
2024/01/16 08:29:24;;;;;;;18.35;9.38;;;;;;;;;;4986241;28;20038;-66
2024/01/16 08:31:50;;;;;;;19.23;9.63;;;;;;;;;;4984943;28;20034;-62
2024/01/16 08:34:15;;;;;;;22.73;11.00;;;;;;;;;;4984075;28;20022;-65
2024/01/16 08:36:41;;;;;;;19.17;9.73;;;;;;;;;;4987405;28;20084;-66
2024/01/16 08:39:06;;;;;;;21.85;10.00;;;;;;;;;;4968687;28;20283;-66
2024/01/16 08:41:31;;;;;;;20.10;10.02;;;;;;;;;;4988648;28;20045;-66
2024/01/16 08:43:56;;;;;;;20.52;10.52;;;;;;;;;;4985428;28;20026;-66
2024/01/16 08:46:22;;;;;;;60.20;26.92;;;;;;;;;;4969326;28;20033;-66
2024/01/16 08:48:48;;;;;;;28.13;14.50;;;;;;;;;;4982631;28;20062;-66
2024/01/16 08:51:13;;;;;;;21.33;10.85;;;;;;;;;;4985166;28;20030;-65
2024/01/16 08:53:39;;;;;;;25.05;11.40;;;;;;;;;;4985140;28;20134;-65
2024/01/16 08:56:06;;;;;;;19.83;10.05;;;;;;;;;;4986762;28;20044;-65
2024/01/16 08:58:35;;;;;;;23.13;11.00;;;;;;;;;;4986286;28;20038;-66
2024/01/16 09:01:00;;;;;;;22.33;11.30;;;;;;;;;;4968916;28;20154;-65
2024/01/16 09:03:26;;;;;;;23.88;10.38;;;;;;;;;;4985719;28;20113;-66
2024/01/16 09:05:51;;;;;;;16.40;9.27;;;;;;;;;;4967678;28;20018;-66
2024/01/16 09:08:17;;;;;;;19.35;9.98;;;;;;;;;;4982507;28;20280;-65
2024/01/16 09:10:42;;;;;;;20.95;9.13;;;;;;;;;;4986066;28;20034;-66
2024/01/16 09:13:07;;;;;;;19.38;9.38;;;;;;;;;;4965723;28;20048;-66
2024/01/16 09:15:32;;;;;;;18.70;9.55;;;;;;;;;;4983061;28;20126;-66
2024/01/16 09:17:58;;;;;;;20.88;9.65;;;;;;;;;;4967229;28;20026;-66
2024/01/16 09:20:23;;;;;;;17.25;9.15;;;;;;;;;;4984708;28;20034;-66
2024/01/16 09:22:48;;;;;;;18.27;9.25;;;;;;;;;;4983010;28;20027;-66
2024/01/16 09:25:14;;;;;;;14.85;7.90;;;;;;;;;;4982502;28;20539;-66
2024/01/16 09:27:39;;;;;;;16.17;8.20;;;;;;;;;;4981494;28;20138;-66
2024/01/16 09:30:05;;;;;;;15.05;7.82;;;;;;;;;;4982082;28;20049;-66
2024/01/16 09:32:30;;;;;;;17.63;8.93;;;;;;;;;;4982774;28;20460;-67
2024/01/16 09:34:58;;;;;;;16.50;8.40;;;;;;;;;;4982740;28;20109;-66
2024/01/16 09:37:23;;;;;;;18.42;8.95;;;;;;;;;;4980618;28;20669;-70
2024/01/16 09:39:50;;;;;;;16.90;7.70;;;;;;;;;;4984538;28;20088;-67
2024/01/16 09:42:16;;;;;;;13.80;6.93;;;;;;;;;;4966387;28;20033;-70
2024/01/16 09:44:42;;;;;;;14.45;7.45;;;;;;;;;;4986563;28;20040;-70
2024/01/16 09:47:08;;;;;;;16.17;7.20;;;;;;;;;;4985063;28;20029;-69
2024/01/16 09:49:33;;;;;;;14.32;7.43;;;;;;;;;;4986897;28;20034;-70
2024/01/16 09:52:01;;;;;;;13.15;6.63;;;;;;;;;;4984145;28;20090;-71
2024/01/16 09:54:26;;;;;;;12.77;6.18;;;;;;;;;;4969653;28;20038;-70
2024/01/16 09:56:53;;;;;;;11.93;5.88;;;;;;;;;;4967625;28;20033;-70
2024/01/16 09:59:20;;;;;;;12.82;5.80;;;;;;;;;;4985847;28;20030;-70
2024/01/16 10:01:46;;;;;;;17.58;6.65;;;;;;;;;;4984853;28;20038;-70
2024/01/16 10:04:12;;;;;;;13.52;6.78;;;;;;;;;;4986891;28;20026;-70
2024/01/16 10:06:38;;;;;;;13.10;5.70;;;;;;;;;;4966661;28;20584;-69
2024/01/16 10:09:04;;;;;;;10.50;5.30;;;;;;;;;;4988074;28;20133;-71
2024/01/16 10:11:30;;;;;;;11.45;5.93;;;;;;;;;;4986168;28;20034;-70
2024/01/16 10:13:56;;;;;;;13.43;6.00;;;;;;;;;;4989155;28;20073;-70
2024/01/16 10:16:22;;;;;;;9.85;5.38;;;;;;;;;;4982857;28;20041;-69
2024/01/16 10:18:47;;;;;;;12.57;6.10;;;;;;;;;;4990183;28;20030;-70
2024/01/16 10:21:20;;;;;;;9.20;5.00;;;;;;;;;;4986052;28;20018;-70
2024/01/16 10:23:45;;;;;;;11.57;5.88;;;;;;;;;;4987229;28;20279;-69
2024/01/16 10:26:11;;;;;;;10.90;4.87;;;;;;;;;;4971268;28;20018;-70
2024/01/16 10:28:37;;;;;;;8.50;5.00;;;;;;;;;;4969446;28;20333;-69
2024/01/16 10:31:03;;;;;;;9.55;4.95;;;;;;;;;;4985798;28;20037;-69
2024/01/16 10:33:28;;;;;;;8.75;4.20;;;;;;;;;;4988260;28;20030;-69
2024/01/16 10:36:13;;;;;;;10.50;4.60;;;;;;;;;;4985951;28;20691;-70
2024/01/16 10:38:41;;;;;;;9.00;4.25;;;;;;;;;;4988095;28;20272;-69
2024/01/16 10:41:10;;;;;;;10.50;5.40;;;;;;;;;;4984854;28;20128;-69
2024/01/16 10:43:36;;;;;;;9.17;4.50;;;;;;;;;;4983224;28;20034;-70
2024/01/16 10:46:14;;;;;;;8.65;4.70;;;;;;;;;;4982079;28;20030;-69
2024/01/16 10:48:41;;;;;;;8.60;4.57;;;;;;;;;;4985953;28;20936;-69
2024/01/16 10:51:08;;;;;;;6.40;3.65;;;;;;;;;;4985313;28;20393;-70
2024/01/16 10:53:34;;;;;;;7.47;4.10;;;;;;;;;;4988354;28;20033;-69
2024/01/16 10:55:59;;;;;;;7.38;3.95;;;;;;;;;;4985519;28;20034;-70
2024/01/16 10:58:30;;;;;;;6.47;3.95;;;;;;;;;;4986109;28;20026;-70
2024/01/16 11:00:57;;;;;;;6.95;4.07;;;;;;;;;;4986754;28;20065;-70
2024/01/16 11:03:35;;;;;;;7.80;4.18;;;;;;;;;;4985368;28;20026;-71
2024/01/16 11:06:00;;;;;;;7.07;3.85;;;;;;;;;;4986470;28;20046;-70
2024/01/16 11:08:30;;;;;;;5.25;3.05;;;;;;;;;;4984635;28;20042;-70
2024/01/16 11:10:56;;;;;;;5.68;3.03;;;;;;;;;;4966681;28;20113;-70
2024/01/16 11:13:22;;;;;;;6.65;3.78;;;;;;;;;;4983449;28;20114;-70
2024/01/16 11:15:49;;;;;;;8.02;4.15;;;;;;;;;;4985224;28;20670;-69
2024/01/16 11:18:16;;;;;;;6.40;3.60;;;;;;;;;;4984020;28;20497;-70
2024/01/16 11:20:42;;;;;;;6.78;3.25;;;;;;;;;;4985265;28;20068;-70
2024/01/16 11:23:08;;;;;;;6.45;3.38;;;;;;;;;;4985002;28;20014;-70
2024/01/16 11:25:33;;;;;;;6.75;3.40;;;;;;;;;;4987350;28;20661;-69
2024/01/16 11:28:12;;;;;;;9.30;3.70;;;;;;;;;;4986728;28;20046;-70
2024/01/16 11:30:37;;;;;;;6.38;3.72;;;;;;;;;;4964765;28;20030;-69
2024/01/16 11:33:06;;;;;;;7.88;3.63;;;;;;;;;;4987023;28;20546;-71
2024/01/16 11:35:39;;;;;;;9.17;4.20;;;;;;;;;;4987316;28;20061;-69
2024/01/16 11:38:06;;;;;;;8.43;4.18;;;;;;;;;;4987762;28;20022;-75
2024/01/16 11:40:32;;;;;;;9.00;4.22;;;;;;;;;;4968640;28;20384;-75
2024/01/16 11:42:57;;;;;;;7.75;4.03;;;;;;;;;;4984824;28;20113;-75
2024/01/16 11:45:43;;;;;;;10.77;4.10;;;;;;;;;;4986442;28;20033;-75
2024/01/16 11:48:11;;;;;;;9.07;4.30;;;;;;;;;;4973957;28;20031;-75
2024/01/16 11:50:36;;;;;;;10.85;4.35;;;;;;;;;;4987079;28;20503;-75
2024/01/16 11:53:02;;;;;;;13.48;5.40;;;;;;;;;;4987572;28;20034;-75
2024/01/16 11:55:27;;;;;;;10.98;5.85;;;;;;;;;;4987560;28;20504;-75
2024/01/16 11:58:11;;;;;;;13.33;5.53;;;;;;;;;;4971485;28;20160;-75
2024/01/16 12:00:40;;;;;;;10.27;4.57;;;;;;;;;;4970093;28;20339;-75
2024/01/16 12:03:05;;;;;;;10.40;3.50;;;;;;;;;;4969767;28;20038;-75
2024/01/16 12:05:31;;;;;;;9.43;4.95;;;;;;;;;;4986707;28;20441;-75
2024/01/16 12:07:57;;;;;;;11.30;4.72;;;;;;;;;;4986212;28;20499;-75
2024/01/16 12:10:23;;;;;;;9.00;3.78;;;;;;;;;;4987152;28;20026;-70
2024/01/16 12:12:49;;;;;;;7.35;3.85;;;;;;;;;;4986451;28;20445;-69
2024/01/16 12:15:16;;;;;;;8.30;4.20;;;;;;;;;;4986282;28;20022;-70
2024/01/16 12:17:54;;;;;;;7.22;4.13;;;;;;;;;;4983814;28;20026;-69
2024/01/16 12:20:21;;;;;;;6.60;4.10;;;;;;;;;;4987474;28;20042;-70
2024/01/16 12:22:52;;;;;;;7.80;4.10;;;;;;;;;;4985173;28;20022;-70
2024/01/16 12:25:19;;;;;;;8.00;4.25;;;;;;;;;;4984483;28;20077;-70
2024/01/16 12:27:44;;;;;;;6.35;4.10;;;;;;;;;;4967764;28;20133;-71
2024/01/16 12:30:10;;;;;;;8.73;4.22;;;;;;;;;;4986506;28;20137;-70
2024/01/16 12:32:35;;;;;;;7.45;4.30;;;;;;;;;;4985151;28;20105;-70
2024/01/16 12:35:01;;;;;;;9.98;4.55;;;;;;;;;;4987208;28;20022;-70
2024/01/16 12:37:26;;;;;;;24.88;11.02;;;;;;;;;;4987101;28;20038;-70
2024/01/16 12:39:52;;;;;;;9.10;4.07;;;;;;;;;;4987852;28;20488;-70
2024/01/16 12:42:17;;;;;;;12.32;4.30;;;;;;;;;;4986361;28;20033;-69
2024/01/16 12:44:43;;;;;;;9.32;4.07;;;;;;;;;;4987265;28;20022;-70
2024/01/16 12:47:08;;;;;;;13.33;5.90;;;;;;;;;;4983665;28;20545;-69
2024/01/16 12:49:39;;;;;;;17.77;7.85;;;;;;;;;;4965104;28;20276;-69
2024/01/16 12:52:14;;;;;;;9.13;4.05;;;;;;;;;;4979416;28;20093;-68
2024/01/16 12:54:39;;;;;;;10.68;4.32;;;;;;;;;;4983952;28;20040;-69
2024/01/16 12:57:06;;;;;;;15.02;6.68;;;;;;;;;;4982718;28;20507;-69
2024/01/16 12:59:31;;;;;;;15.25;5.07;;;;;;;;;;4983364;28;20035;-69
2024/01/16 13:01:56;;;;;;;7.53;3.60;;;;;;;;;;4984204;28;20018;-69
2024/01/16 13:04:22;;;;;;;9.45;3.70;;;;;;;;;;4984227;28;20065;-69
2024/01/16 13:06:48;;;;;;;5.77;3.33;;;;;;;;;;4979637;28;20037;-70
2024/01/16 13:09:16;;;;;;;8.70;4.90;;;;;;;;;;4985777;28;20411;-70
2024/01/16 13:11:45;;;;;;;6.30;3.60;;;;;;;;;;4984039;28;20069;-69
2024/01/16 13:14:10;;;;;;;5.10;2.78;;;;;;;;;;4985074;28;20038;-68
2024/01/16 13:16:35;;;;;;;4.47;2.43;;;;;;;;;;4981302;28;20390;-69
2024/01/16 13:19:02;;;;;;;4.35;2.83;;;;;;;;;;4980251;28;20275;-69
2024/01/16 13:21:27;;;;;;;4.95;2.90;;;;;;;;;;4980452;28;20045;-69
2024/01/16 13:23:52;;;;;;;5.57;2.75;;;;;;;;;;4963393;28;20027;-69
2024/01/16 13:26:18;;;;;;;5.17;3.10;;;;;;;;;;4979015;28;20584;-69
2024/01/16 13:28:43;;;;;;;7.05;3.08;;;;;;;;;;4963475;28;20280;-70
2024/01/16 13:31:08;;;;;;;4.63;2.70;;;;;;;;;;4981095;28;20037;-69
2024/01/16 13:33:33;;;;;;;5.93;3.83;;;;;;;;;;4966262;28;20272;-70
2024/01/16 13:35:59;;;;;;;6.00;3.17;;;;;;;;;;4976747;28;20401;-69
2024/01/16 13:38:24;;;;;;;5.57;3.05;;;;;;;;;;4963262;28;20264;-69
2024/01/16 13:40:50;;;;;;;8.63;4.50;;;;;;;;;;4962289;28;20031;-69
2024/01/16 13:43:15;;;;;;;17.38;6.00;;;;;;;;;;4984867;28;20362;-69
2024/01/16 13:45:41;;;;;;;4.43;2.70;;;;;;;;;;4982891;28;20500;-69
2024/01/16 13:48:07;;;;;;;6.20;3.75;;;;;;;;;;4986996;28;20034;-69
2024/01/16 13:50:33;;;;;;;4.22;2.80;;;;;;;;;;4983725;28;20062;-69
2024/01/16 13:52:58;;;;;;;5.80;3.90;;;;;;;;;;4983582;28;20042;-68
2024/01/16 13:55:23;;;;;;;14.90;4.13;;;;;;;;;;4983293;28;20402;-69
2024/01/16 13:57:49;;;;;;;10.25;4.22;;;;;;;;;;4983863;28;20019;-69
2024/01/16 14:00:15;;;;;;;6.55;3.53;;;;;;;;;;4968843;28;20049;-68
2024/01/16 14:02:44;;;;;;;6.30;3.90;;;;;;;;;;4983473;28;20162;-69
2024/01/16 14:05:15;;;;;;;6.57;3.72;;;;;;;;;;4987259;28;20041;-69
2024/01/16 14:07:46;;;;;;;5.05;3.22;;;;;;;;;;4985170;28;20045;-70
2024/01/16 14:10:12;;;;;;;6.65;3.60;;;;;;;;;;4983488;28;20027;-70
2024/01/16 14:12:44;;;;;;;6.00;3.53;;;;;;;;;;4961920;28;20045;-69
2024/01/16 14:15:16;;;;;;;5.82;3.17;;;;;;;;;;4985740;28;20026;-69
2024/01/16 14:17:48;;;;;;;6.88;3.55;;;;;;;;;;4985494;28;20022;-69
2024/01/16 14:20:14;;;;;;;6.57;4.18;;;;;;;;;;4985897;28;20030;-69